sensor_id;sensor_type;location;lat;lon;timestamp;pressure;altitude;pressure_sealevel;temperature;humidity
54854;BME280;40747;49.480;8.658;2023-04-27T00:01:34;100476.47;;;7.09;66.97
54854;BME280;40747;49.480;8.658;2023-04-27T00:03:59;100467.84;;;7.02;67.49
54854;BME280;40747;49.480;8.658;2023-04-27T00:06:25;100467.75;;;7.07;65.99
54854;BME280;40747;49.480;8.658;2023-04-27T00:08:51;100465.38;;;6.90;66.18
54854;BME280;40747;49.480;8.658;2023-04-27T00:11:16;100458.41;;;6.91;66.82
54854;BME280;40747;49.480;8.658;2023-04-27T00:13:42;100463.53;;;6.97;66.75
54854;BME280;40747;49.480;8.658;2023-04-27T00:16:07;100462.63;;;7.01;66.18
54854;BME280;40747;49.480;8.658;2023-04-27T00:18:32;100434.91;;;6.83;65.26
54854;BME280;40747;49.480;8.658;2023-04-27T00:20:58;100462.31;;;7.21;64.47
54854;BME280;40747;49.480;8.658;2023-04-27T00:23:23;100447.56;;;7.15;64.77
54854;BME280;40747;49.480;8.658;2023-04-27T00:25:48;100449.34;;;7.13;64.80
54854;BME280;40747;49.480;8.658;2023-04-27T00:28:14;100454.66;;;7.09;64.01
54854;BME280;40747;49.480;8.658;2023-04-27T00:30:39;100455.59;;;7.03;65.00
54854;BME280;40747;49.480;8.658;2023-04-27T00:33:05;100443.53;;;6.93;65.86
54854;BME280;40747;49.480;8.658;2023-04-27T00:35:31;100461.00;;;6.89;65.11
54854;BME280;40747;49.480;8.658;2023-04-27T00:37:57;100443.53;;;6.91;65.83
54854;BME280;40747;49.480;8.658;2023-04-27T00:40:22;100453.31;;;6.78;65.60
54854;BME280;40747;49.480;8.658;2023-04-27T00:42:47;100444.59;;;6.76;65.25
54854;BME280;40747;49.480;8.658;2023-04-27T00:45:13;100454.28;;;6.69;65.85
54854;BME280;40747;49.480;8.658;2023-04-27T00:47:38;100450.59;;;6.86;65.08
54854;BME280;40747;49.480;8.658;2023-04-27T00:50:04;100441.91;;;6.82;65.10
54854;BME280;40747;49.480;8.658;2023-04-27T00:52:33;100444.53;;;6.82;65.90
54854;BME280;40747;49.480;8.658;2023-04-27T00:55:00;100439.19;;;6.90;64.83
54854;BME280;40747;49.480;8.658;2023-04-27T00:57:26;100448.84;;;6.88;65.47
54854;BME280;40747;49.480;8.658;2023-04-27T00:59:52;100444.72;;;6.67;65.41
54854;BME280;40747;49.480;8.658;2023-04-27T01:02:17;100443.88;;;6.66;65.18
54854;BME280;40747;49.480;8.658;2023-04-27T01:04:43;100456.97;;;6.65;65.40
54854;BME280;40747;49.480;8.658;2023-04-27T01:07:08;100457.97;;;6.56;65.65
54854;BME280;40747;49.480;8.658;2023-04-27T01:09:33;100450.84;;;6.66;64.78
54854;BME280;40747;49.480;8.658;2023-04-27T01:11:59;100451.72;;;6.68;64.50
54854;BME280;40747;49.480;8.658;2023-04-27T01:14:24;100463.09;;;6.64;64.77
54854;BME280;40747;49.480;8.658;2023-04-27T01:16:50;100468.88;;;6.91;64.35
54854;BME280;40747;49.480;8.658;2023-04-27T01:19:16;100465.28;;;6.98;63.72
54854;BME280;40747;49.480;8.658;2023-04-27T01:21:41;100465.97;;;7.11;63.59
54854;BME280;40747;49.480;8.658;2023-04-27T01:24:07;100468.81;;;6.94;64.00
54854;BME280;40747;49.480;8.658;2023-04-27T01:26:32;100465.28;;;6.96;67.26
54854;BME280;40747;49.480;8.658;2023-04-27T01:28:57;100472.13;;;7.07;67.90
54854;BME280;40747;49.480;8.658;2023-04-27T01:31:23;100462.66;;;6.98;68.36
54854;BME280;40747;49.480;8.658;2023-04-27T01:33:48;100464.22;;;7.10;68.12
54854;BME280;40747;49.480;8.658;2023-04-27T01:36:13;100466.75;;;7.16;68.15
54854;BME280;40747;49.480;8.658;2023-04-27T01:38:39;100468.31;;;7.31;68.20
54854;BME280;40747;49.480;8.658;2023-04-27T01:41:05;100464.81;;;7.32;67.84
54854;BME280;40747;49.480;8.658;2023-04-27T01:43:33;100462.94;;;7.38;68.36
54854;BME280;40747;49.480;8.658;2023-04-27T01:46:05;100462.81;;;7.46;65.72
54854;BME280;40747;49.480;8.658;2023-04-27T01:48:31;100465.31;;;6.95;66.12
54854;BME280;40747;49.480;8.658;2023-04-27T01:50:57;100448.38;;;6.55;65.92
54854;BME280;40747;49.480;8.658;2023-04-27T01:53:22;100465.53;;;6.76;65.20
54854;BME280;40747;49.480;8.658;2023-04-27T01:55:47;100466.19;;;6.95;64.97
54854;BME280;40747;49.480;8.658;2023-04-27T01:58:13;100469.53;;;7.07;64.15
54854;BME280;40747;49.480;8.658;2023-04-27T02:00:38;100474.13;;;6.87;64.06
54854;BME280;40747;49.480;8.658;2023-04-27T02:03:03;100476.13;;;6.67;64.06
54854;BME280;40747;49.480;8.658;2023-04-27T02:05:28;100464.28;;;6.35;64.59
54854;BME280;40747;49.480;8.658;2023-04-27T02:07:54;100486.97;;;6.36;64.79
54854;BME280;40747;49.480;8.658;2023-04-27T02:10:19;100472.97;;;6.38;65.98
54854;BME280;40747;49.480;8.658;2023-04-27T02:12:46;100473.38;;;6.78;63.80
54854;BME280;40747;49.480;8.658;2023-04-27T02:15:12;100471.53;;;6.86;63.41
54854;BME280;40747;49.480;8.658;2023-04-27T02:17:37;100472.66;;;6.66;64.01
54854;BME280;40747;49.480;8.658;2023-04-27T02:20:04;100469.94;;;6.76;63.09
54854;BME280;40747;49.480;8.658;2023-04-27T02:22:31;100476.97;;;6.70;63.56
54854;BME280;40747;49.480;8.658;2023-04-27T02:24:56;100466.38;;;6.80;63.17
54854;BME280;40747;49.480;8.658;2023-04-27T02:27:22;100464.53;;;6.88;62.86
54854;BME280;40747;49.480;8.658;2023-04-27T02:29:47;100472.38;;;6.89;62.87
54854;BME280;40747;49.480;8.658;2023-04-27T02:32:12;100472.41;;;6.86;62.77
54854;BME280;40747;49.480;8.658;2023-04-27T02:34:37;100482.78;;;6.96;63.48
54854;BME280;40747;49.480;8.658;2023-04-27T02:37:03;100476.72;;;6.91;62.64
54854;BME280;40747;49.480;8.658;2023-04-27T02:39:28;100482.59;;;7.08;62.73
54854;BME280;40747;49.480;8.658;2023-04-27T02:41:53;100479.19;;;7.01;62.77
54854;BME280;40747;49.480;8.658;2023-04-27T02:44:19;100484.63;;;6.86;63.15
54854;BME280;40747;49.480;8.658;2023-04-27T02:46:44;100479.63;;;6.67;64.08
54854;BME280;40747;49.480;8.658;2023-04-27T02:49:09;100483.56;;;7.02;64.71
54854;BME280;40747;49.480;8.658;2023-04-27T02:51:35;100474.69;;;7.10;63.49
54854;BME280;40747;49.480;8.658;2023-04-27T02:54:00;100482.44;;;7.19;64.41
54854;BME280;40747;49.480;8.658;2023-04-27T02:56:26;100492.63;;;6.73;64.33
54854;BME280;40747;49.480;8.658;2023-04-27T02:58:51;100495.22;;;6.78;65.70
54854;BME280;40747;49.480;8.658;2023-04-27T03:01:16;100486.69;;;6.59;64.48
54854;BME280;40747;49.480;8.658;2023-04-27T03:03:45;100482.09;;;6.80;66.46
54854;BME280;40747;49.480;8.658;2023-04-27T03:06:11;100478.44;;;6.93;66.61
54854;BME280;40747;49.480;8.658;2023-04-27T03:08:37;100484.53;;;6.94;65.33
54854;BME280;40747;49.480;8.658;2023-04-27T03:11:02;100478.41;;;6.95;63.20
54854;BME280;40747;49.480;8.658;2023-04-27T03:13:28;100476.69;;;6.94;63.42
54854;BME280;40747;49.480;8.658;2023-04-27T03:15:53;100477.47;;;6.99;64.52
54854;BME280;40747;49.480;8.658;2023-04-27T03:18:18;100487.63;;;7.22;65.18
54854;BME280;40747;49.480;8.658;2023-04-27T03:20:44;100488.50;;;7.24;65.96
54854;BME280;40747;49.480;8.658;2023-04-27T03:23:09;100476.91;;;7.39;68.33
54854;BME280;40747;49.480;8.658;2023-04-27T03:25:34;100480.28;;;7.47;68.08
54854;BME280;40747;49.480;8.658;2023-04-27T03:28:00;100481.94;;;7.53;68.04
54854;BME280;40747;49.480;8.658;2023-04-27T03:30:25;100486.13;;;7.63;67.67
54854;BME280;40747;49.480;8.658;2023-04-27T03:32:50;100481.81;;;7.62;68.35
54854;BME280;40747;49.480;8.658;2023-04-27T03:35:16;100482.66;;;7.63;69.10
54854;BME280;40747;49.480;8.658;2023-04-27T03:37:41;100477.72;;;7.43;69.52
54854;BME280;40747;49.480;8.658;2023-04-27T03:40:09;100463.81;;;7.41;70.75
54854;BME280;40747;49.480;8.658;2023-04-27T03:42:34;100488.00;;;7.57;71.59
54854;BME280;40747;49.480;8.658;2023-04-27T03:44:59;100475.97;;;7.45;70.78
54854;BME280;40747;49.480;8.658;2023-04-27T03:47:25;100484.75;;;7.42;72.83
54854;BME280;40747;49.480;8.658;2023-04-27T03:49:50;100484.69;;;7.47;73.00
54854;BME280;40747;49.480;8.658;2023-04-27T03:52:15;100482.34;;;7.27;73.80
54854;BME280;40747;49.480;8.658;2023-04-27T03:54:41;100483.28;;;7.21;73.67
54854;BME280;40747;49.480;8.658;2023-04-27T03:57:06;100480.53;;;7.32;74.17
54854;BME280;40747;49.480;8.658;2023-04-27T03:59:31;100479.84;;;7.19;74.03
54854;BME280;40747;49.480;8.658;2023-04-27T04:01:56;100486.69;;;7.29;73.14
54854;BME280;40747;49.480;8.658;2023-04-27T04:04:22;100497.00;;;7.38;72.92
54854;BME280;40747;49.480;8.658;2023-04-27T04:06:47;100476.13;;;7.32;74.18
54854;BME280;40747;49.480;8.658;2023-04-27T04:09:13;100486.44;;;7.45;73.27
54854;BME280;40747;49.480;8.658;2023-04-27T04:11:38;100483.28;;;7.22;72.52
54854;BME280;40747;49.480;8.658;2023-04-27T04:14:03;100492.81;;;7.27;74.19
54854;BME280;40747;49.480;8.658;2023-04-27T04:16:28;100490.03;;;7.37;75.14
54854;BME280;40747;49.480;8.658;2023-04-27T04:18:54;100464.44;;;6.94;76.75
54854;BME280;40747;49.480;8.658;2023-04-27T04:21:19;100486.88;;;7.12;76.60
54854;BME280;40747;49.480;8.658;2023-04-27T04:23:45;100486.94;;;7.09;77.26
54854;BME280;40747;49.480;8.658;2023-04-27T04:26:10;100490.44;;;7.11;76.82
54854;BME280;40747;49.480;8.658;2023-04-27T04:28:36;100480.31;;;6.82;77.92
54854;BME280;40747;49.480;8.658;2023-04-27T04:31:02;100483.16;;;6.63;78.59
54854;BME280;40747;49.480;8.658;2023-04-27T04:33:29;100490.38;;;6.43;78.71
54854;BME280;40747;49.480;8.658;2023-04-27T04:35:55;100486.88;;;6.44;78.83
54854;BME280;40747;49.480;8.658;2023-04-27T04:38:20;100481.97;;;6.13;78.49
54854;BME280;40747;49.480;8.658;2023-04-27T04:40:47;100484.94;;;6.60;79.06
54854;BME280;40747;49.480;8.658;2023-04-27T04:43:12;100509.94;;;6.87;78.06
54854;BME280;40747;49.480;8.658;2023-04-27T04:45:38;100501.06;;;6.99;77.83
54854;BME280;40747;49.480;8.658;2023-04-27T04:48:03;100495.75;;;7.02;76.27
54854;BME280;40747;49.480;8.658;2023-04-27T04:50:28;100509.66;;;7.07;77.45
54854;BME280;40747;49.480;8.658;2023-04-27T04:52:54;100516.75;;;7.00;77.56
54854;BME280;40747;49.480;8.658;2023-04-27T04:55:19;100514.00;;;7.11;78.02
54854;BME280;40747;49.480;8.658;2023-04-27T04:57:45;100499.06;;;7.18;77.52
54854;BME280;40747;49.480;8.658;2023-04-27T05:00:11;100512.69;;;7.42;77.80
54854;BME280;40747;49.480;8.658;2023-04-27T05:02:38;100485.56;;;7.44;76.61
54854;BME280;40747;49.480;8.658;2023-04-27T05:05:03;100500.13;;;7.64;77.92
54854;BME280;40747;49.480;8.658;2023-04-27T05:07:29;100493.09;;;7.66;76.46
54854;BME280;40747;49.480;8.658;2023-04-27T05:09:54;100496.81;;;7.52;76.32
54854;BME280;40747;49.480;8.658;2023-04-27T05:12:19;100504.88;;;7.38;74.54
54854;BME280;40747;49.480;8.658;2023-04-27T05:14:45;100501.03;;;7.63;76.19
54854;BME280;40747;49.480;8.658;2023-04-27T05:17:10;100503.41;;;7.78;75.58
54854;BME280;40747;49.480;8.658;2023-04-27T05:19:36;100510.34;;;7.81;76.87
54854;BME280;40747;49.480;8.658;2023-04-27T05:22:01;100498.13;;;7.80;76.46
54854;BME280;40747;49.480;8.658;2023-04-27T05:24:27;100506.56;;;7.97;77.34
54854;BME280;40747;49.480;8.658;2023-04-27T05:26:52;100479.72;;;7.83;78.13
54854;BME280;40747;49.480;8.658;2023-04-27T05:29:18;100507.38;;;8.02;76.76
54854;BME280;40747;49.480;8.658;2023-04-27T05:31:43;100518.75;;;8.01;76.41
54854;BME280;40747;49.480;8.658;2023-04-27T05:34:09;100518.84;;;7.95;77.09
54854;BME280;40747;49.480;8.658;2023-04-27T05:36:35;100515.53;;;7.85;76.58
54854;BME280;40747;49.480;8.658;2023-04-27T05:39:01;100534.72;;;7.89;77.25
54854;BME280;40747;49.480;8.658;2023-04-27T05:41:26;100531.13;;;7.93;77.46
54854;BME280;40747;49.480;8.658;2023-04-27T05:43:52;100535.38;;;8.02;77.86
54854;BME280;40747;49.480;8.658;2023-04-27T05:46:17;100536.06;;;8.13;77.44
54854;BME280;40747;49.480;8.658;2023-04-27T05:48:43;100535.00;;;8.22;78.15
54854;BME280;40747;49.480;8.658;2023-04-27T05:51:08;100536.88;;;8.15;77.08
54854;BME280;40747;49.480;8.658;2023-04-27T05:53:34;100512.66;;;8.01;76.92
54854;BME280;40747;49.480;8.658;2023-04-27T05:55:59;100547.34;;;8.17;77.48
54854;BME280;40747;49.480;8.658;2023-04-27T05:58:26;100531.59;;;8.18;78.45
54854;BME280;40747;49.480;8.658;2023-04-27T06:00:52;100547.94;;;8.33;77.43
54854;BME280;40747;49.480;8.658;2023-04-27T06:03:17;100547.75;;;8.47;77.45
54854;BME280;40747;49.480;8.658;2023-04-27T06:05:43;100528.56;;;8.42;77.52
54854;BME280;40747;49.480;8.658;2023-04-27T06:08:09;100533.59;;;8.56;76.11
54854;BME280;40747;49.480;8.658;2023-04-27T06:10:35;100538.91;;;8.51;75.66
54854;BME280;40747;49.480;8.658;2023-04-27T06:13:00;100552.69;;;8.62;76.00
54854;BME280;40747;49.480;8.658;2023-04-27T06:15:26;100557.72;;;8.73;75.14
54854;BME280;40747;49.480;8.658;2023-04-27T06:17:51;100555.56;;;8.95;76.71
54854;BME280;40747;49.480;8.658;2023-04-27T06:20:16;100545.72;;;9.07;75.28
54854;BME280;40747;49.480;8.658;2023-04-27T06:22:42;100564.84;;;9.13;73.67
54854;BME280;40747;49.480;8.658;2023-04-27T06:25:07;100569.34;;;9.07;74.18
54854;BME280;40747;49.480;8.658;2023-04-27T06:27:33;100570.22;;;9.07;73.89
54854;BME280;40747;49.480;8.658;2023-04-27T06:29:59;100584.97;;;9.14;73.96
54854;BME280;40747;49.480;8.658;2023-04-27T06:32:24;100581.75;;;9.41;72.70
54854;BME280;40747;49.480;8.658;2023-04-27T06:34:49;100536.91;;;9.09;75.02
54854;BME280;40747;49.480;8.658;2023-04-27T06:37:15;100592.31;;;9.39;75.41
54854;BME280;40747;49.480;8.658;2023-04-27T06:39:42;100589.53;;;9.47;75.83
54854;BME280;40747;49.480;8.658;2023-04-27T06:42:07;100586.13;;;9.42;75.06
54854;BME280;40747;49.480;8.658;2023-04-27T06:44:33;100585.03;;;9.52;74.32
54854;BME280;40747;49.480;8.658;2023-04-27T06:46:58;100581.84;;;8.94;74.82
54854;BME280;40747;49.480;8.658;2023-04-27T06:49:23;100594.13;;;8.93;75.93
54854;BME280;40747;49.480;8.658;2023-04-27T06:51:49;100586.31;;;8.89;76.25
54854;BME280;40747;49.480;8.658;2023-04-27T06:54:15;100596.78;;;9.35;75.25
54854;BME280;40747;49.480;8.658;2023-04-27T06:56:40;100598.91;;;9.59;73.66
54854;BME280;40747;49.480;8.658;2023-04-27T06:59:07;100599.19;;;9.86;72.20
54854;BME280;40747;49.480;8.658;2023-04-27T07:01:32;100603.63;;;9.83;72.07
54854;BME280;40747;49.480;8.658;2023-04-27T07:03:58;100600.44;;;9.69;72.41
54854;BME280;40747;49.480;8.658;2023-04-27T07:06:23;100599.34;;;9.78;72.24
54854;BME280;40747;49.480;8.658;2023-04-27T07:08:50;100597.91;;;9.64;72.75
54854;BME280;40747;49.480;8.658;2023-04-27T07:11:15;100594.53;;;9.59;72.79
54854;BME280;40747;49.480;8.658;2023-04-27T07:13:41;100588.50;;;9.54;73.74
54854;BME280;40747;49.480;8.658;2023-04-27T07:16:06;100588.56;;;9.90;72.53
54854;BME280;40747;49.480;8.658;2023-04-27T07:18:32;100590.66;;;9.76;72.64
54854;BME280;40747;49.480;8.658;2023-04-27T07:20:57;100592.56;;;10.07;71.36
54854;BME280;40747;49.480;8.658;2023-04-27T07:23:22;100599.63;;;10.41;71.40
54854;BME280;40747;49.480;8.658;2023-04-27T07:25:48;100595.31;;;10.71;70.71
54854;BME280;40747;49.480;8.658;2023-04-27T07:28:14;100592.44;;;10.80;70.46
54854;BME280;40747;49.480;8.658;2023-04-27T07:30:39;100601.69;;;10.95;70.53
54854;BME280;40747;49.480;8.658;2023-04-27T07:33:06;100600.47;;;11.07;70.08
54854;BME280;40747;49.480;8.658;2023-04-27T07:35:32;100595.19;;;11.09;68.94
54854;BME280;40747;49.480;8.658;2023-04-27T07:37:58;100597.00;;;11.37;69.15
54854;BME280;40747;49.480;8.658;2023-04-27T07:40:25;100603.00;;;11.42;68.34
54854;BME280;40747;49.480;8.658;2023-04-27T07:42:51;100593.75;;;11.28;68.08
54854;BME280;40747;49.480;8.658;2023-04-27T07:45:16;100589.03;;;11.40;67.13
54854;BME280;40747;49.480;8.658;2023-04-27T07:47:42;100596.94;;;11.40;67.09
54854;BME280;40747;49.480;8.658;2023-04-27T07:50:08;100591.66;;;11.40;65.65
54854;BME280;40747;49.480;8.658;2023-04-27T07:52:34;100598.25;;;11.25;65.63
54854;BME280;40747;49.480;8.658;2023-04-27T07:55:00;100596.75;;;11.46;62.05
54854;BME280;40747;49.480;8.658;2023-04-27T07:57:26;100603.78;;;11.45;60.96
54854;BME280;40747;49.480;8.658;2023-04-27T07:59:51;100590.38;;;11.23;62.18
54854;BME280;40747;49.480;8.658;2023-04-27T08:02:17;100587.53;;;11.88;61.99
54854;BME280;40747;49.480;8.658;2023-04-27T08:04:42;100585.81;;;12.42;60.28
54854;BME280;40747;49.480;8.658;2023-04-27T08:07:07;100576.84;;;13.20;59.10
54854;BME280;40747;49.480;8.658;2023-04-27T08:09:33;100565.16;;;13.73;58.76
54854;BME280;40747;49.480;8.658;2023-04-27T08:11:58;100566.63;;;14.03;56.56
54854;BME280;40747;49.480;8.658;2023-04-27T08:14:23;100566.00;;;14.59;55.06
54854;BME280;40747;49.480;8.658;2023-04-27T08:16:48;100568.31;;;14.88;54.79
54854;BME280;40747;49.480;8.658;2023-04-27T08:19:16;100558.88;;;15.20;54.02
54854;BME280;40747;49.480;8.658;2023-04-27T08:21:42;100548.78;;;15.48;51.73
54854;BME280;40747;49.480;8.658;2023-04-27T08:24:08;100546.50;;;15.21;51.99
54854;BME280;40747;49.480;8.658;2023-04-27T08:26:33;100549.41;;;15.72;52.24
54854;BME280;40747;49.480;8.658;2023-04-27T08:28:59;100545.88;;;15.91;50.73
54854;BME280;40747;49.480;8.658;2023-04-27T08:31:25;100547.59;;;15.92;47.64
54854;BME280;40747;49.480;8.658;2023-04-27T08:33:51;100561.13;;;15.68;48.31
54854;BME280;40747;49.480;8.658;2023-04-27T08:36:18;100552.13;;;16.07;48.35
54854;BME280;40747;49.480;8.658;2023-04-27T08:38:43;100526.50;;;16.06;46.48
54854;BME280;40747;49.480;8.658;2023-04-27T08:41:08;100530.44;;;16.67;46.84
54854;BME280;40747;49.480;8.658;2023-04-27T08:43:34;100530.19;;;16.90;46.66
54854;BME280;40747;49.480;8.658;2023-04-27T08:46:00;100523.19;;;17.04;46.56
54854;BME280;40747;49.480;8.658;2023-04-27T08:48:25;100538.50;;;16.66;47.79
54854;BME280;40747;49.480;8.658;2023-04-27T08:50:51;100548.25;;;17.00;46.77
54854;BME280;40747;49.480;8.658;2023-04-27T08:53:19;100550.91;;;17.00;46.18
54854;BME280;40747;49.480;8.658;2023-04-27T08:55:46;100543.34;;;16.93;46.21
54854;BME280;40747;49.480;8.658;2023-04-27T08:58:11;100536.00;;;17.94;46.04
54854;BME280;40747;49.480;8.658;2023-04-27T09:00:41;100543.56;;;18.46;46.64
54854;BME280;40747;49.480;8.658;2023-04-27T09:03:24;100548.84;;;18.77;43.59
54854;BME280;40747;49.480;8.658;2023-04-27T09:05:49;100537.97;;;18.51;44.39
54854;BME280;40747;49.480;8.658;2023-04-27T09:08:15;100541.78;;;18.76;44.23
54854;BME280;40747;49.480;8.658;2023-04-27T09:10:50;100519.13;;;18.69;44.04
54854;BME280;40747;49.480;8.658;2023-04-27T09:13:17;100545.84;;;19.12;45.30
54854;BME280;40747;49.480;8.658;2023-04-27T09:15:44;100549.00;;;19.60;44.95
54854;BME280;40747;49.480;8.658;2023-04-27T09:18:20;100543.84;;;19.57;44.41
54854;BME280;40747;49.480;8.658;2023-04-27T09:20:47;100546.53;;;19.85;44.00
54854;BME280;40747;49.480;8.658;2023-04-27T09:23:34;100537.63;;;20.11;42.07
54854;BME280;40747;49.480;8.658;2023-04-27T09:26:02;100535.94;;;19.56;42.08
54854;BME280;40747;49.480;8.658;2023-04-27T09:28:29;100538.75;;;19.67;42.74
54854;BME280;40747;49.480;8.658;2023-04-27T09:30:59;100534.53;;;19.77;42.13
54854;BME280;40747;49.480;8.658;2023-04-27T09:33:28;100524.84;;;20.29;42.26
54854;BME280;40747;49.480;8.658;2023-04-27T09:35:54;100530.22;;;20.42;42.35
54854;BME280;40747;49.480;8.658;2023-04-27T09:38:21;100524.41;;;20.49;43.82
54854;BME280;40747;49.480;8.658;2023-04-27T09:40:48;100521.44;;;20.40;41.07
54854;BME280;40747;49.480;8.658;2023-04-27T09:43:14;100528.50;;;20.54;41.81
54854;BME280;40747;49.480;8.658;2023-04-27T09:45:40;100497.22;;;20.29;41.53
54854;BME280;40747;49.480;8.658;2023-04-27T09:48:07;100516.69;;;20.05;42.44
54854;BME280;40747;49.480;8.658;2023-04-27T09:50:41;100514.19;;;19.75;43.08
54854;BME280;40747;49.480;8.658;2023-04-27T09:53:10;100508.94;;;19.46;42.95
54854;BME280;40747;49.480;8.658;2023-04-27T09:58:47;100503.19;;;19.79;44.94
54854;BME280;40747;49.480;8.658;2023-04-27T10:01:20;100510.84;;;20.26;44.50
54854;BME280;40747;49.480;8.658;2023-04-27T10:03:58;100507.31;;;20.90;42.50
54854;BME280;40747;49.480;8.658;2023-04-27T10:09:34;100499.00;;;21.19;41.18
54854;BME280;40747;49.480;8.658;2023-04-27T10:12:21;100504.66;;;20.90;40.96
54854;BME280;40747;49.480;8.658;2023-04-27T10:14:57;100499.59;;;20.59;41.56
54854;BME280;40747;49.480;8.658;2023-04-27T10:17:30;100506.97;;;20.30;43.13
54854;BME280;40747;49.480;8.658;2023-04-27T10:19:58;100502.81;;;20.52;43.33
54854;BME280;40747;49.480;8.658;2023-04-27T10:22:36;100508.81;;;20.68;43.03
54854;BME280;40747;49.480;8.658;2023-04-27T10:25:56;100497.38;;;20.79;42.02
54854;BME280;40747;49.480;8.658;2023-04-27T10:28:01;100486.00;;;20.75;42.58
54854;BME280;40747;49.480;8.658;2023-04-27T10:30:35;100490.63;;;20.22;43.01
54854;BME280;40747;49.480;8.658;2023-04-27T10:33:08;100502.94;;;19.42;43.43
54854;BME280;40747;49.480;8.658;2023-04-27T10:35:39;100498.81;;;19.24;43.66
54854;BME280;40747;49.480;8.658;2023-04-27T10:38:09;100497.72;;;19.68;44.06
54854;BME280;40747;49.480;8.658;2023-04-27T10:40:36;100501.16;;;19.97;42.11
54854;BME280;40747;49.480;8.658;2023-04-27T10:43:12;100499.59;;;20.34;44.56
54854;BME280;40747;49.480;8.658;2023-04-27T10:45:39;100491.38;;;20.75;40.81
54854;BME280;40747;49.480;8.658;2023-04-27T10:48:05;100483.88;;;20.81;39.20
54854;BME280;40747;49.480;8.658;2023-04-27T10:50:31;100491.03;;;20.93;40.75
54854;BME280;40747;49.480;8.658;2023-04-27T10:53:03;100490.97;;;21.19;40.65
54854;BME280;40747;49.480;8.658;2023-04-27T10:55:29;100481.69;;;21.11;40.27
54854;BME280;40747;49.480;8.658;2023-04-27T10:57:56;100477.03;;;20.76;39.87
54854;BME280;40747;49.480;8.658;2023-04-27T11:02:55;100474.31;;;21.64;41.09
54854;BME280;40747;49.480;8.658;2023-04-27T11:05:26;100481.94;;;21.81;37.67
54854;BME280;40747;49.480;8.658;2023-04-27T11:08:07;100460.66;;;21.55;38.67
54854;BME280;40747;49.480;8.658;2023-04-27T11:10:33;100464.38;;;21.53;38.59
54854;BME280;40747;49.480;8.658;2023-04-27T11:13:12;100464.63;;;21.50;38.69
54854;BME280;40747;49.480;8.658;2023-04-27T11:15:53;100472.78;;;21.72;40.01
54854;BME280;40747;49.480;8.658;2023-04-27T11:18:24;100467.84;;;21.05;39.08
54854;BME280;40747;49.480;8.658;2023-04-27T11:20:53;100453.06;;;21.12;40.01
54854;BME280;40747;49.480;8.658;2023-04-27T11:23:29;100474.53;;;21.36;38.96
54854;BME280;40747;49.480;8.658;2023-04-27T11:26:11;100468.41;;;21.83;38.18
54854;BME280;40747;49.480;8.658;2023-04-27T11:28:39;100470.00;;;21.85;37.35
54854;BME280;40747;49.480;8.658;2023-04-27T11:31:05;100446.00;;;22.31;38.67
54854;BME280;40747;49.480;8.658;2023-04-27T11:33:30;100460.47;;;22.17;36.87
54854;BME280;40747;49.480;8.658;2023-04-27T11:35:56;100460.31;;;22.07;38.81
54854;BME280;40747;49.480;8.658;2023-04-27T11:38:21;100449.81;;;21.20;36.99
54854;BME280;40747;49.480;8.658;2023-04-27T11:40:58;100455.06;;;21.45;37.88
54854;BME280;40747;49.480;8.658;2023-04-27T11:43:25;100458.16;;;21.28;37.89
54854;BME280;40747;49.480;8.658;2023-04-27T11:45:51;100451.56;;;21.69;39.91
54854;BME280;40747;49.480;8.658;2023-04-27T11:48:18;100454.31;;;20.95;38.53
54854;BME280;40747;49.480;8.658;2023-04-27T11:50:46;100445.88;;;21.37;38.01
54854;BME280;40747;49.480;8.658;2023-04-27T11:53:16;100448.03;;;21.20;38.81
54854;BME280;40747;49.480;8.658;2023-04-27T11:55:41;100441.06;;;21.18;37.97
54854;BME280;40747;49.480;8.658;2023-04-27T11:58:16;100442.28;;;21.62;38.37
54854;BME280;40747;49.480;8.658;2023-04-27T12:00:43;100435.59;;;21.43;37.16
54854;BME280;40747;49.480;8.658;2023-04-27T12:03:08;100432.16;;;21.41;36.83
54854;BME280;40747;49.480;8.658;2023-04-27T12:05:34;100430.88;;;21.47;35.72
54854;BME280;40747;49.480;8.658;2023-04-27T12:07:59;100416.41;;;21.37;37.33
54854;BME280;40747;49.480;8.658;2023-04-27T12:10:25;100424.44;;;21.25;36.76
54854;BME280;40747;49.480;8.658;2023-04-27T12:12:51;100421.03;;;21.10;37.95
54854;BME280;40747;49.480;8.658;2023-04-27T12:15:17;100422.84;;;21.10;39.04
54854;BME280;40747;49.480;8.658;2023-04-27T12:17:42;100422.84;;;20.86;38.22
54854;BME280;40747;49.480;8.658;2023-04-27T12:20:08;100424.56;;;20.61;38.36
54854;BME280;40747;49.480;8.658;2023-04-27T12:22:33;100419.78;;;20.40;38.21
54854;BME280;40747;49.480;8.658;2023-04-27T12:24:58;100419.97;;;20.63;39.50
54854;BME280;40747;49.480;8.658;2023-04-27T12:27:24;100409.06;;;21.03;38.24
54854;BME280;40747;49.480;8.658;2023-04-27T12:29:50;100402.59;;;20.82;37.63
54854;BME280;40747;49.480;8.658;2023-04-27T12:32:18;100408.63;;;20.59;39.11
54854;BME280;40747;49.480;8.658;2023-04-27T12:34:43;100398.47;;;20.52;38.54
54854;BME280;40747;49.480;8.658;2023-04-27T12:37:09;100389.66;;;20.88;37.85
54854;BME280;40747;49.480;8.658;2023-04-27T12:39:34;100401.63;;;20.83;38.49
54854;BME280;40747;49.480;8.658;2023-04-27T12:41:59;100390.41;;;20.65;39.38
54854;BME280;40747;49.480;8.658;2023-04-27T12:44:24;100390.91;;;20.20;39.09
54854;BME280;40747;49.480;8.658;2023-04-27T12:46:54;100397.00;;;20.22;40.05
54854;BME280;40747;49.480;8.658;2023-04-27T12:49:19;100393.69;;;20.05;39.78
54854;BME280;40747;49.480;8.658;2023-04-27T12:51:44;100394.75;;;20.03;39.47
54854;BME280;40747;49.480;8.658;2023-04-27T12:54:12;100395.53;;;19.64;38.04
54854;BME280;40747;49.480;8.658;2023-04-27T12:56:37;100384.31;;;19.32;38.83
54854;BME280;40747;49.480;8.658;2023-04-27T12:59:03;100391.44;;;19.19;38.90
54854;BME280;40747;49.480;8.658;2023-04-27T13:01:30;100397.94;;;19.55;40.00